sensor_id;sensor_type;location;lat;lon;timestamp;temperature;humidity
19192;DHT22;9728;48.194;16.346;2024-02-28T00:03:29;19.40;65.60
19192;DHT22;9728;48.194;16.346;2024-02-28T00:08:35;19.30;65.50
19192;DHT22;9728;48.194;16.346;2024-02-28T00:13:42;19.30;65.70
19192;DHT22;9728;48.194;16.346;2024-02-28T00:18:45;19.20;66.00
19192;DHT22;9728;48.194;16.346;2024-02-28T00:23:48;19.20;65.90
19192;DHT22;9728;48.194;16.346;2024-02-28T00:28:53;19.20;66.00
19192;DHT22;9728;48.194;16.346;2024-02-28T00:33:56;19.20;66.10
19192;DHT22;9728;48.194;16.346;2024-02-28T00:39:00;19.20;66.10
19192;DHT22;9728;48.194;16.346;2024-02-28T00:44:05;19.20;66.20
19192;DHT22;9728;48.194;16.346;2024-02-28T00:49:08;19.20;66.30
19192;DHT22;9728;48.194;16.346;2024-02-28T00:54:12;19.20;66.30
19192;DHT22;9728;48.194;16.346;2024-02-28T00:59:16;19.20;66.30
19192;DHT22;9728;48.194;16.346;2024-02-28T01:04:20;19.20;66.40
19192;DHT22;9728;48.194;16.346;2024-02-28T01:09:23;19.20;66.30
19192;DHT22;9728;48.194;16.346;2024-02-28T01:14:29;19.20;66.30
19192;DHT22;9728;48.194;16.346;2024-02-28T01:19:32;19.20;66.40
19192;DHT22;9728;48.194;16.346;2024-02-28T01:24:36;19.20;66.20
19192;DHT22;9728;48.194;16.346;2024-02-28T01:29:40;19.20;66.20
19192;DHT22;9728;48.194;16.346;2024-02-28T01:34:45;19.20;66.40
19192;DHT22;9728;48.194;16.346;2024-02-28T01:39:48;19.20;66.20
19192;DHT22;9728;48.194;16.346;2024-02-28T01:44:54;19.20;66.30
19192;DHT22;9728;48.194;16.346;2024-02-28T01:49:58;19.20;66.40
19192;DHT22;9728;48.194;16.346;2024-02-28T01:55:01;19.20;66.40
19192;DHT22;9728;48.194;16.346;2024-02-28T02:00:07;19.20;66.40
19192;DHT22;9728;48.194;16.346;2024-02-28T02:05:11;19.20;66.50
19192;DHT22;9728;48.194;16.346;2024-02-28T02:10:16;19.20;66.40
19192;DHT22;9728;48.194;16.346;2024-02-28T02:15:21;19.20;66.40
19192;DHT22;9728;48.194;16.346;2024-02-28T02:20:26;19.20;66.40
19192;DHT22;9728;48.194;16.346;2024-02-28T02:25:31;19.20;66.40
19192;DHT22;9728;48.194;16.346;2024-02-28T02:30:35;19.20;66.40
19192;DHT22;9728;48.194;16.346;2024-02-28T02:35:38;19.20;66.30
19192;DHT22;9728;48.194;16.346;2024-02-28T02:40:43;19.20;66.30
19192;DHT22;9728;48.194;16.346;2024-02-28T02:45:48;19.20;66.40
19192;DHT22;9728;48.194;16.346;2024-02-28T02:50:51;19.20;66.40
19192;DHT22;9728;48.194;16.346;2024-02-28T02:55:57;19.20;66.50
19192;DHT22;9728;48.194;16.346;2024-02-28T03:01:00;19.20;66.60
19192;DHT22;9728;48.194;16.346;2024-02-28T03:06:04;19.20;66.40
19192;DHT22;9728;48.194;16.346;2024-02-28T03:11:09;19.20;66.40
19192;DHT22;9728;48.194;16.346;2024-02-28T03:16:13;19.20;66.50
19192;DHT22;9728;48.194;16.346;2024-02-28T03:21:17;19.20;66.40
19192;DHT22;9728;48.194;16.346;2024-02-28T03:26:22;19.30;66.40
19192;DHT22;9728;48.194;16.346;2024-02-28T03:31:25;19.20;66.40
19192;DHT22;9728;48.194;16.346;2024-02-28T03:36:29;19.20;66.30
19192;DHT22;9728;48.194;16.346;2024-02-28T03:41:34;19.20;66.40
19192;DHT22;9728;48.194;16.346;2024-02-28T03:46:37;19.20;66.30
19192;DHT22;9728;48.194;16.346;2024-02-28T03:51:40;19.20;66.20
19192;DHT22;9728;48.194;16.346;2024-02-28T03:56:46;19.20;66.10
19192;DHT22;9728;48.194;16.346;2024-02-28T04:01:49;19.10;65.80
19192;DHT22;9728;48.194;16.346;2024-02-28T04:06:53;19.10;65.60
19192;DHT22;9728;48.194;16.346;2024-02-28T04:11:58;19.00;65.60
19192;DHT22;9728;48.194;16.346;2024-02-28T04:17:01;18.90;65.60
19192;DHT22;9728;48.194;16.346;2024-02-28T04:22:04;18.80;65.60
19192;DHT22;9728;48.194;16.346;2024-02-28T04:27:09;18.70;65.60
19192;DHT22;9728;48.194;16.346;2024-02-28T04:32:13;18.60;65.50
19192;DHT22;9728;48.194;16.346;2024-02-28T04:37:17;18.50;65.40
19192;DHT22;9728;48.194;16.346;2024-02-28T04:42:22;18.40;65.40
19192;DHT22;9728;48.194;16.346;2024-02-28T04:47:25;18.40;65.50
19192;DHT22;9728;48.194;16.346;2024-02-28T04:52:40;18.30;65.30
19192;DHT22;9728;48.194;16.346;2024-02-28T04:57:45;18.20;65.10
19192;DHT22;9728;48.194;16.346;2024-02-28T05:02:49;18.10;65.30
19192;DHT22;9728;48.194;16.346;2024-02-28T05:07:52;17.90;65.30
19192;DHT22;9728;48.194;16.346;2024-02-28T05:12:57;17.80;65.30
19192;DHT22;9728;48.194;16.346;2024-02-28T05:18:01;17.70;65.30
19192;DHT22;9728;48.194;16.346;2024-02-28T05:23:04;17.60;65.40
19192;DHT22;9728;48.194;16.346;2024-02-28T05:28:09;17.40;65.60
19192;DHT22;9728;48.194;16.346;2024-02-28T05:33:12;17.30;65.70
19192;DHT22;9728;48.194;16.346;2024-02-28T05:38:16;17.20;65.70
19192;DHT22;9728;48.194;16.346;2024-02-28T05:43:21;17.20;65.70
19192;DHT22;9728;48.194;16.346;2024-02-28T05:48:25;17.10;65.80
19192;DHT22;9728;48.194;16.346;2024-02-28T05:53:28;17.10;65.80
19192;DHT22;9728;48.194;16.346;2024-02-28T05:58:35;17.00;66.00
19192;DHT22;9728;48.194;16.346;2024-02-28T06:03:41;17.00;66.50
19192;DHT22;9728;48.194;16.346;2024-02-28T06:08:45;17.00;66.40
19192;DHT22;9728;48.194;16.346;2024-02-28T06:13:51;17.00;67.20
19192;DHT22;9728;48.194;16.346;2024-02-28T06:18:55;17.00;66.20
19192;DHT22;9728;48.194;16.346;2024-02-28T06:23:59;17.00;66.20
19192;DHT22;9728;48.194;16.346;2024-02-28T06:29:04;17.00;66.00
19192;DHT22;9728;48.194;16.346;2024-02-28T06:34:08;17.00;66.00
19192;DHT22;9728;48.194;16.346;2024-02-28T06:39:15;17.00;65.90
19192;DHT22;9728;48.194;16.346;2024-02-28T06:44:20;17.00;65.90
19192;DHT22;9728;48.194;16.346;2024-02-28T06:49:23;17.00;65.90
19192;DHT22;9728;48.194;16.346;2024-02-28T06:54:27;17.00;65.90
19192;DHT22;9728;48.194;16.346;2024-02-28T06:59:32;17.00;65.90
19192;DHT22;9728;48.194;16.346;2024-02-28T07:04:36;17.10;65.90
19192;DHT22;9728;48.194;16.346;2024-02-28T07:09:41;17.00;65.90
19192;DHT22;9728;48.194;16.346;2024-02-28T07:14:46;17.00;65.80
19192;DHT22;9728;48.194;16.346;2024-02-28T07:19:49;17.00;66.20
19192;DHT22;9728;48.194;16.346;2024-02-28T07:24:53;17.00;66.10
19192;DHT22;9728;48.194;16.346;2024-02-28T07:29:58;17.00;66.00
19192;DHT22;9728;48.194;16.346;2024-02-28T07:35:01;17.00;66.00
19192;DHT22;9728;48.194;16.346;2024-02-28T07:40:06;17.00;66.10
19192;DHT22;9728;48.194;16.346;2024-02-28T07:45:12;17.00;66.30
19192;DHT22;9728;48.194;16.346;2024-02-28T07:50:15;17.00;66.20
19192;DHT22;9728;48.194;16.346;2024-02-28T07:55:19;17.00;66.20
19192;DHT22;9728;48.194;16.346;2024-02-28T08:00:25;17.00;66.20
19192;DHT22;9728;48.194;16.346;2024-02-28T08:05:29;17.00;66.20
19192;DHT22;9728;48.194;16.346;2024-02-28T08:10:32;17.00;66.20
19192;DHT22;9728;48.194;16.346;2024-02-28T08:15:37;17.10;66.20
19192;DHT22;9728;48.194;16.346;2024-02-28T08:20:41;17.10;66.10
19192;DHT22;9728;48.194;16.346;2024-02-28T08:25:45;17.00;66.20
19192;DHT22;9728;48.194;16.346;2024-02-28T08:30:50;17.00;66.40
19192;DHT22;9728;48.194;16.346;2024-02-28T08:35:53;17.00;66.40
19192;DHT22;9728;48.194;16.346;2024-02-28T08:40:57;17.10;66.40
19192;DHT22;9728;48.194;16.346;2024-02-28T08:46:02;17.10;66.40
19192;DHT22;9728;48.194;16.346;2024-02-28T08:51:05;17.20;70.10
19192;DHT22;9728;48.194;16.346;2024-02-28T08:56:09;17.40;73.70
19192;DHT22;9728;48.194;16.346;2024-02-28T09:01:15;17.90;75.80
19192;DHT22;9728;48.194;16.346;2024-02-28T09:06:19;18.60;76.70
19192;DHT22;9728;48.194;16.346;2024-02-28T09:11:22;19.40;75.70
19192;DHT22;9728;48.194;16.346;2024-02-28T09:16:28;20.20;74.40
19192;DHT22;9728;48.194;16.346;2024-02-28T09:21:31;20.80;72.60
19192;DHT22;9728;48.194;16.346;2024-02-28T09:26:38;21.50;70.00
19192;DHT22;9728;48.194;16.346;2024-02-28T09:31:44;21.90;66.30
19192;DHT22;9728;48.194;16.346;2024-02-28T09:36:47;22.10;64.50
19192;DHT22;9728;48.194;16.346;2024-02-28T09:41:52;22.00;63.10
19192;DHT22;9728;48.194;16.346;2024-02-28T09:46:57;21.80;62.30
19192;DHT22;9728;48.194;16.346;2024-02-28T09:52:02;21.60;61.70
19192;DHT22;9728;48.194;16.346;2024-02-28T09:57:06;21.30;61.80
19192;DHT22;9728;48.194;16.346;2024-02-28T10:02:12;21.00;61.90
19192;DHT22;9728;48.194;16.346;2024-02-28T10:07:17;20.80;61.70
19192;DHT22;9728;48.194;16.346;2024-02-28T10:12:21;20.50;62.20
19192;DHT22;9728;48.194;16.346;2024-02-28T10:17:25;20.30;62.30
19192;DHT22;9728;48.194;16.346;2024-02-28T10:22:34;20.20;62.60
19192;DHT22;9728;48.194;16.346;2024-02-28T10:27:38;20.10;62.90
19192;DHT22;9728;48.194;16.346;2024-02-28T10:32:48;20.10;63.30
19192;DHT22;9728;48.194;16.346;2024-02-28T10:37:52;20.00;62.90
19192;DHT22;9728;48.194;16.346;2024-02-28T10:42:58;20.00;63.60
19192;DHT22;9728;48.194;16.346;2024-02-28T10:48:05;20.10;63.70
19192;DHT22;9728;48.194;16.346;2024-02-28T10:53:13;20.20;63.70
19192;DHT22;9728;48.194;16.346;2024-02-28T10:58:19;20.30;63.50
19192;DHT22;9728;48.194;16.346;2024-02-28T11:03:27;20.50;63.60
19192;DHT22;9728;48.194;16.346;2024-02-28T11:08:30;20.60;63.40
19192;DHT22;9728;48.194;16.346;2024-02-28T11:13:37;20.70;66.70
19192;DHT22;9728;48.194;16.346;2024-02-28T11:18:49;21.00;66.90
19192;DHT22;9728;48.194;16.346;2024-02-28T11:23:53;21.30;64.20
19192;DHT22;9728;48.194;16.346;2024-02-28T11:29:00;21.50;64.00
19192;DHT22;9728;48.194;16.346;2024-02-28T11:34:05;21.70;63.30
19192;DHT22;9728;48.194;16.346;2024-02-28T11:39:09;21.80;63.80
19192;DHT22;9728;48.194;16.346;2024-02-28T11:44:22;21.90;62.70
19192;DHT22;9728;48.194;16.346;2024-02-28T11:49:26;22.00;61.90
19192;DHT22;9728;48.194;16.346;2024-02-28T11:54:30;22.00;61.80
19192;DHT22;9728;48.194;16.346;2024-02-28T11:59:35;22.00;61.30
19192;DHT22;9728;48.194;16.346;2024-02-28T12:04:38;21.90;60.70
19192;DHT22;9728;48.194;16.346;2024-02-28T12:09:42;21.80;60.90
19192;DHT22;9728;48.194;16.346;2024-02-28T12:14:48;21.70;60.90
19192;DHT22;9728;48.194;16.346;2024-02-28T12:19:51;21.70;60.80
19192;DHT22;9728;48.194;16.346;2024-02-28T12:24:57;21.60;60.80
19192;DHT22;9728;48.194;16.346;2024-02-28T12:30:05;21.60;60.60
19192;DHT22;9728;48.194;16.346;2024-02-28T12:35:09;21.50;60.10
19192;DHT22;9728;48.194;16.346;2024-02-28T12:40:12;21.40;60.30
19192;DHT22;9728;48.194;16.346;2024-02-28T12:45:19;21.30;60.30
19192;DHT22;9728;48.194;16.346;2024-02-28T12:50:23;21.20;60.10
19192;DHT22;9728;48.194;16.346;2024-02-28T12:55:27;21.10;60.40
19192;DHT22;9728;48.194;16.346;2024-02-28T13:00:32;21.00;60.50
19192;DHT22;9728;48.194;16.346;2024-02-28T13:05:35;21.00;60.50
19192;DHT22;9728;48.194;16.346;2024-02-28T13:10:39;20.90;60.60
19192;DHT22;9728;48.194;16.346;2024-02-28T13:15:45;20.90;60.70
19192;DHT22;9728;48.194;16.346;2024-02-28T13:20:48;20.80;60.70
19192;DHT22;9728;48.194;16.346;2024-02-28T13:25:52;20.80;60.90
19192;DHT22;9728;48.194;16.346;2024-02-28T13:30:57;20.70;60.90
19192;DHT22;9728;48.194;16.346;2024-02-28T13:36:01;20.60;60.70
19192;DHT22;9728;48.194;16.346;2024-02-28T13:41:04;20.60;60.90
19192;DHT22;9728;48.194;16.346;2024-02-28T13:46:09;20.60;60.80
19192;DHT22;9728;48.194;16.346;2024-02-28T13:51:12;20.50;60.80
19192;DHT22;9728;48.194;16.346;2024-02-28T13:56:17;20.50;60.90
19192;DHT22;9728;48.194;16.346;2024-02-28T14:01:22;20.40;60.90
19192;DHT22;9728;48.194;16.346;2024-02-28T14:06:25;20.40;60.70
19192;DHT22;9728;48.194;16.346;2024-02-28T14:11:29;20.40;60.80
19192;DHT22;9728;48.194;16.346;2024-02-28T14:16:34;20.30;60.80
19192;DHT22;9728;48.194;16.346;2024-02-28T14:21:37;20.30;60.70
19192;DHT22;9728;48.194;16.346;2024-02-28T14:26:41;20.30;60.90
19192;DHT22;9728;48.194;16.346;2024-02-28T14:31:45;20.30;60.90
19192;DHT22;9728;48.194;16.346;2024-02-28T14:36:49;20.30;60.80
19192;DHT22;9728;48.194;16.346;2024-02-28T14:41:52;20.20;60.80
19192;DHT22;9728;48.194;16.346;2024-02-28T14:46:58;20.20;60.90
19192;DHT22;9728;48.194;16.346;2024-02-28T14:52:01;20.20;60.80
19192;DHT22;9728;48.194;16.346;2024-02-28T14:57:05;20.10;60.80
19192;DHT22;9728;48.194;16.346;2024-02-28T15:02:11;20.10;60.80
19192;DHT22;9728;48.194;16.346;2024-02-28T15:07:15;20.00;60.90
19192;DHT22;9728;48.194;16.346;2024-02-28T15:12:18;19.90;61.00
19192;DHT22;9728;48.194;16.346;2024-02-28T15:17:23;19.90;61.20
19192;DHT22;9728;48.194;16.346;2024-02-28T15:22:26;19.80;61.10
19192;DHT22;9728;48.194;16.346;2024-02-28T15:27:30;19.80;61.30
19192;DHT22;9728;48.194;16.346;2024-02-28T15:32:36;19.70;61.20
19192;DHT22;9728;48.194;16.346;2024-02-28T15:37:42;19.70;61.30
19192;DHT22;9728;48.194;16.346;2024-02-28T15:42:45;19.60;61.40
19192;DHT22;9728;48.194;16.346;2024-02-28T15:47:50;19.60;61.40
19192;DHT22;9728;48.194;16.346;2024-02-28T15:52:54;19.60;61.40
19192;DHT22;9728;48.194;16.346;2024-02-28T15:57:57;19.50;61.40
19192;DHT22;9728;48.194;16.346;2024-02-28T16:03:03;19.50;61.40
19192;DHT22;9728;48.194;16.346;2024-02-28T16:08:06;19.50;61.50
19192;DHT22;9728;48.194;16.346;2024-02-28T16:13:10;19.40;61.60
19192;DHT22;9728;48.194;16.346;2024-02-28T16:18:15;19.40;61.60
19192;DHT22;9728;48.194;16.346;2024-02-28T16:23:18;19.40;61.70
19192;DHT22;9728;48.194;16.346;2024-02-28T16:28:22;19.30;61.60
19192;DHT22;9728;48.194;16.346;2024-02-28T16:33:26;19.20;62.60
19192;DHT22;9728;48.194;16.346;2024-02-28T16:38:30;19.10;61.80
19192;DHT22;9728;48.194;16.346;2024-02-28T16:43:33;19.10;61.80
19192;DHT22;9728;48.194;16.346;2024-02-28T16:48:38;19.00;61.80
19192;DHT22;9728;48.194;16.346;2024-02-28T16:53:43;18.90;62.50
19192;DHT22;9728;48.194;16.346;2024-02-28T16:58:46;18.80;62.60
19192;DHT22;9728;48.194;16.346;2024-02-28T17:03:51;18.80;62.60
19192;DHT22;9728;48.194;16.346;2024-02-28T17:08:55;18.80;62.60
19192;DHT22;9728;48.194;16.346;2024-02-28T17:13:58;18.90;62.50
19192;DHT22;9728;48.194;16.346;2024-02-28T17:19:03;18.80;62.50
19192;DHT22;9728;48.194;16.346;2024-02-28T17:24:07;18.80;62.50
19192;DHT22;9728;48.194;16.346;2024-02-28T17:29:10;18.80;62.50
19192;DHT22;9728;48.194;16.346;2024-02-28T17:34:15;18.70;62.50
19192;DHT22;9728;48.194;16.346;2024-02-28T17:39:19;18.70;62.60
19192;DHT22;9728;48.194;16.346;2024-02-28T17:44:23;18.70;62.60
19192;DHT22;9728;48.194;16.346;2024-02-28T17:49:28;18.70;62.60
19192;DHT22;9728;48.194;16.346;2024-02-28T17:54:32;18.60;62.60
19192;DHT22;9728;48.194;16.346;2024-02-28T17:59:35;18.60;62.70
19192;DHT22;9728;48.194;16.346;2024-02-28T18:04:41;18.60;62.70
19192;DHT22;9728;48.194;16.346;2024-02-28T18:09:44;18.60;62.80
19192;DHT22;9728;48.194;16.346;2024-02-28T18:14:49;18.50;62.80
19192;DHT22;9728;48.194;16.346;2024-02-28T18:19:53;18.50;62.80
19192;DHT22;9728;48.194;16.346;2024-02-28T18:24:57;18.50;62.80
19192;DHT22;9728;48.194;16.346;2024-02-28T18:30:02;18.50;62.90
19192;DHT22;9728;48.194;16.346;2024-02-28T18:35:08;18.40;62.90
19192;DHT22;9728;48.194;16.346;2024-02-28T18:40:12;18.40;62.90
19192;DHT22;9728;48.194;16.346;2024-02-28T18:45:18;18.40;63.20
19192;DHT22;9728;48.194;16.346;2024-02-28T18:50:23;18.40;63.10
19192;DHT22;9728;48.194;16.346;2024-02-28T18:55:26;18.40;63.20
19192;DHT22;9728;48.194;16.346;2024-02-28T19:00:29;18.40;63.10
19192;DHT22;9728;48.194;16.346;2024-02-28T19:05:35;18.40;63.10
19192;DHT22;9728;48.194;16.346;2024-02-28T19:10:38;18.40;63.20
19192;DHT22;9728;48.194;16.346;2024-02-28T19:15:44;18.30;63.10
19192;DHT22;9728;48.194;16.346;2024-02-28T19:20:49;18.30;63.30
19192;DHT22;9728;48.194;16.346;2024-02-28T19:25:53;18.30;63.20
19192;DHT22;9728;48.194;16.346;2024-02-28T19:30:56;18.30;63.30
19192;DHT22;9728;48.194;16.346;2024-02-28T19:36:04;18.30;63.30
19192;DHT22;9728;48.194;16.346;2024-02-28T19:41:08;18.20;63.30
19192;DHT22;9728;48.194;16.346;2024-02-28T19:46:11;18.20;63.30
19192;DHT22;9728;48.194;16.346;2024-02-28T19:51:16;18.20;63.40
19192;DHT22;9728;48.194;16.346;2024-02-28T19:56:19;18.20;63.40
19192;DHT22;9728;48.194;16.346;2024-02-28T20:01:24;18.10;63.40
19192;DHT22;9728;48.194;16.346;2024-02-28T20:06:29;18.10;63.50
19192;DHT22;9728;48.194;16.346;2024-02-28T20:11:32;18.10;63.60
19192;DHT22;9728;48.194;16.346;2024-02-28T20:16:36;18.10;63.60
19192;DHT22;9728;48.194;16.346;2024-02-28T20:21:44;18.00;63.60
19192;DHT22;9728;48.194;16.346;2024-02-28T20:26:48;18.10;63.60
19192;DHT22;9728;48.194;16.346;2024-02-28T20:31:51;18.00;63.60
19192;DHT22;9728;48.194;16.346;2024-02-28T20:36:56;18.00;64.90
19192;DHT22;9728;48.194;16.346;2024-02-28T20:41:59;18.00;64.40
19192;DHT22;9728;48.194;16.346;2024-02-28T20:47:03;18.00;64.10
19192;DHT22;9728;48.194;16.346;2024-02-28T20:52:08;18.00;64.00
19192;DHT22;9728;48.194;16.346;2024-02-28T20:57:11;18.00;64.00
19192;DHT22;9728;48.194;16.346;2024-02-28T21:02:18;17.90;63.80
19192;DHT22;9728;48.194;16.346;2024-02-28T21:07:23;17.90;63.80
19192;DHT22;9728;48.194;16.346;2024-02-28T21:12:46;17.90;63.80
19192;DHT22;9728;48.194;16.346;2024-02-28T21:17:50;17.90;63.80
19192;DHT22;9728;48.194;16.346;2024-02-28T21:22:55;17.80;63.70
19192;DHT22;9728;48.194;16.346;2024-02-28T21:27:58;17.80;65.50
19192;DHT22;9728;48.194;16.346;2024-02-28T21:33:02;17.80;64.50
19192;DHT22;9728;48.194;16.346;2024-02-28T21:38:07;17.80;64.30
19192;DHT22;9728;48.194;16.346;2024-02-28T21:43:13;17.80;64.20
19192;DHT22;9728;48.194;16.346;2024-02-28T21:48:16;17.80;64.20
19192;DHT22;9728;48.194;16.346;2024-02-28T21:53:21;17.80;64.10
19192;DHT22;9728;48.194;16.346;2024-02-28T21:58:26;17.80;64.10
19192;DHT22;9728;48.194;16.346;2024-02-28T22:03:30;17.70;64.00
19192;DHT22;9728;48.194;16.346;2024-02-28T22:08:34;17.70;64.00
19192;DHT22;9728;48.194;16.346;2024-02-28T22:13:38;17.70;64.00
19192;DHT22;9728;48.194;16.346;2024-02-28T22:18:42;17.70;64.00
19192;DHT22;9728;48.194;16.346;2024-02-28T22:23:47;17.60;64.00
19192;DHT22;9728;48.194;16.346;2024-02-28T22:28:51;17.60;64.00
19192;DHT22;9728;48.194;16.346;2024-02-28T22:33:54;17.60;64.00
19192;DHT22;9728;48.194;16.346;2024-02-28T22:38:59;17.50;64.00
19192;DHT22;9728;48.194;16.346;2024-02-28T22:44:02;17.50;64.40
19192;DHT22;9728;48.194;16.346;2024-02-28T22:49:06;17.50;64.20
19192;DHT22;9728;48.194;16.346;2024-02-28T22:54:11;17.50;64.20
19192;DHT22;9728;48.194;16.346;2024-02-28T22:59:17;17.50;64.20
19192;DHT22;9728;48.194;16.346;2024-02-28T23:04:20;17.50;64.20
19192;DHT22;9728;48.194;16.346;2024-02-28T23:09:25;17.50;64.20
19192;DHT22;9728;48.194;16.346;2024-02-28T23:14:28;17.40;64.30
19192;DHT22;9728;48.194;16.346;2024-02-28T23:19:32;17.40;64.30
19192;DHT22;9728;48.194;16.346;2024-02-28T23:24:39;17.40;64.30
19192;DHT22;9728;48.194;16.346;2024-02-28T23:29:43;17.40;64.40
19192;DHT22;9728;48.194;16.346;2024-02-28T23:34:46;17.30;64.30
19192;DHT22;9728;48.194;16.346;2024-02-28T23:39:51;17.30;64.30
19192;DHT22;9728;48.194;16.346;2024-02-28T23:44:54;17.30;64.50
19192;DHT22;9728;48.194;16.346;2024-02-28T23:49:58;17.20;64.40
19192;DHT22;9728;48.194;16.346;2024-02-28T23:55:03;17.20;64.40
